createdAt,value
2022-08-09T00:01:55.139Z,25.67
2022-08-09T00:06:19.038Z,25.59
2022-08-09T00:10:17.945Z,25.31
2022-08-09T00:14:37.836Z,25.30
2022-08-09T00:18:38.090Z,25.29
2022-08-09T00:22:37.697Z,25.23
2022-08-09T00:26:39.341Z,25.27
2022-08-09T00:30:44.498Z,25.14
2022-08-09T00:34:46.354Z,25.05
2022-08-09T00:38:52.227Z,25.08
2022-08-09T00:44:14.248Z,25.06
2022-08-09T00:47:15.380Z,25.15
2022-08-09T00:51:17.990Z,25.16
2022-08-09T00:56:03.362Z,25.14
2022-08-09T00:59:41.405Z,25.21
2022-08-09T01:03:52.240Z,25.14
2022-08-09T01:08:01.579Z,24.95
2022-08-09T01:12:08.495Z,24.79
2022-08-09T01:16:09.840Z,24.72
2022-08-09T01:20:23.495Z,24.62
2022-08-09T01:24:37.589Z,24.43
2022-08-09T01:28:43.144Z,24.37
2022-08-09T01:32:47.632Z,24.30
2022-08-09T01:36:50.530Z,24.37
2022-08-09T01:41:03.008Z,24.31
2022-08-09T01:45:10.550Z,24.31
2022-08-09T01:49:14.657Z,24.36
2022-08-09T01:53:19.294Z,24.34
2022-08-09T01:57:22.105Z,24.37
2022-08-09T02:01:30.594Z,24.42
2022-08-09T02:06:03.932Z,24.38
2022-08-09T02:10:09.452Z,24.25
2022-08-09T02:14:11.000Z,24.14
2022-08-09T02:18:22.622Z,24.08
2022-08-09T02:22:35.775Z,24.15
2022-08-09T02:26:39.141Z,23.95
2022-08-09T02:30:46.905Z,24.27
2022-08-09T02:34:55.869Z,24.33
2022-08-09T02:39:00.576Z,24.30
2022-08-09T02:43:03.164Z,24.13
2022-08-09T02:47:07.457Z,24.17
2022-08-09T02:51:14.855Z,24.08
2022-08-09T02:55:21.049Z,23.91
2022-08-09T02:59:25.914Z,23.89
2022-08-09T03:04:17.390Z,23.90
2022-08-09T03:08:00.767Z,23.77
2022-08-09T03:12:05.340Z,23.71
2022-08-09T03:16:07.637Z,23.70
2022-08-09T03:20:11.648Z,23.72
2022-08-09T03:24:13.732Z,23.79
2022-08-09T03:28:33.061Z,23.71
2022-08-09T03:32:33.939Z,23.57
2022-08-09T03:36:37.581Z,23.74
2022-08-09T03:40:41.438Z,23.68
2022-08-09T03:44:41.079Z,23.76
2022-08-09T03:48:51.182Z,23.72
2022-08-09T03:52:51.143Z,23.61
2022-08-09T03:56:54.304Z,23.72
2022-08-09T04:00:58.540Z,24.10
2022-08-09T04:05:00.738Z,24.76
2022-08-09T04:09:03.242Z,25.47
2022-08-09T04:13:18.508Z,25.84
2022-08-09T04:17:18.616Z,25.90
2022-08-09T04:21:17.735Z,26.35
2022-08-09T04:25:17.368Z,26.84
2022-08-09T04:29:20.281Z,27.60
2022-08-09T04:33:23.656Z,28.42
2022-08-09T04:37:42.179Z,28.67
2022-08-09T04:41:46.164Z,28.76
2022-08-09T04:45:53.530Z,29.15
2022-08-09T04:49:55.850Z,29.28
2022-08-09T04:53:58.596Z,29.44
2022-08-09T04:58:01.808Z,29.05
2022-08-09T05:02:11.693Z,28.61
2022-08-09T05:06:27.317Z,28.66
2022-08-09T05:10:28.190Z,28.06
2022-08-09T05:14:31.015Z,27.72
2022-08-09T05:18:38.121Z,27.73
2022-08-09T05:23:56.598Z,28.05
2022-08-09T05:27:24.703Z,28.09
2022-08-09T05:31:37.063Z,28.43
2022-08-09T05:35:50.777Z,28.49
2022-08-09T05:39:52.447Z,28.45
2022-08-09T05:43:52.917Z,28.18
2022-08-09T05:48:01.433Z,27.91
2022-08-09T05:52:03.603Z,27.92
2022-08-09T05:56:03.616Z,27.62
2022-08-09T06:00:03.356Z,27.20
2022-08-09T06:04:10.769Z,27.11
2022-08-09T06:08:19.387Z,27.57
2022-08-09T06:12:26.343Z,27.75
2022-08-09T06:16:26.255Z,27.97
2022-08-09T06:20:25.478Z,28.17
2022-08-09T06:24:27.338Z,28.43
2022-08-09T06:28:27.552Z,28.68
2022-08-09T06:32:59.606Z,28.96
2022-08-09T06:36:57.369Z,29.57
2022-08-09T06:41:04.182Z,29.58
2022-08-09T06:45:20.417Z,29.19
2022-08-09T06:49:45.144Z,28.69
2022-08-09T06:53:49.837Z,28.97
2022-08-09T06:58:04.746Z,29.16
2022-08-09T07:02:05.197Z,29.30
2022-08-09T07:06:05.629Z,29.13
2022-08-09T07:10:22.233Z,29.75
2022-08-09T07:14:27.257Z,30.36
2022-08-09T07:18:29.149Z,30.40
2022-08-09T07:22:35.120Z,30.37
2022-08-09T07:26:37.938Z,30.28
2022-08-09T07:30:39.752Z,30.18
2022-08-09T07:34:39.711Z,29.96
2022-08-09T07:38:39.392Z,30.01
2022-08-09T07:42:50.599Z,30.09
2022-08-09T07:46:54.343Z,30.53
2022-08-09T07:51:09.422Z,30.83
2022-08-09T07:55:14.384Z,30.65
2022-08-09T07:59:25.244Z,30.69
2022-08-09T08:03:27.859Z,31.06
2022-08-09T08:08:43.973Z,31.58
2022-08-09T08:12:11.196Z,31.32
2022-08-09T08:16:31.407Z,31.28
2022-08-09T08:20:34.675Z,31.31
2022-08-09T08:24:40.309Z,31.20
2022-08-09T08:28:40.919Z,31.45
2022-08-09T08:32:52.340Z,31.58
2022-08-09T08:36:54.861Z,31.45
2022-08-09T08:40:57.759Z,31.48
2022-08-09T08:44:59.731Z,31.73
2022-08-09T08:49:19.033Z,32.00
2022-08-09T08:53:21.828Z,31.97
2022-08-09T08:57:22.360Z,31.92
2022-08-09T09:01:25.031Z,32.08
2022-08-09T09:06:00.732Z,32.41
2022-08-09T09:10:08.934Z,32.42
2022-08-09T09:14:15.811Z,32.38
2022-08-09T09:18:21.458Z,32.62
2022-08-09T09:22:28.863Z,32.81
2022-08-09T09:26:34.529Z,32.70
2022-08-09T09:30:40.647Z,32.78
2022-08-09T09:34:44.694Z,32.86
2022-08-09T09:38:56.358Z,32.77
2022-08-09T09:43:08.042Z,32.94
2022-08-09T09:47:21.481Z,33.10
2022-08-09T09:51:26.097Z,33.00
2022-08-09T09:55:57.551Z,32.97
2022-08-09T09:59:59.301Z,33.17
2022-08-09T10:04:02.281Z,33.31
2022-08-09T10:08:25.970Z,33.80
2022-08-09T10:12:28.414Z,33.82
2022-08-09T10:16:56.979Z,33.81
2022-08-09T10:21:08.010Z,34.10
2022-08-09T10:25:12.508Z,34.31
2022-08-09T10:29:36.742Z,34.12
2022-08-09T10:34:08.149Z,34.13
2022-08-09T10:38:03.163Z,34.32
2022-08-09T10:42:03.686Z,34.85
2022-08-09T10:46:21.057Z,35.01
2022-08-09T10:50:50.960Z,35.19
2022-08-09T10:54:53.287Z,35.10
2022-08-09T10:58:59.492Z,34.91
2022-08-09T11:03:57.237Z,35.14
2022-08-09T11:08:53.417Z,35.03
2022-08-09T11:14:32.854Z,35.34
2022-08-09T11:19:11.727Z,35.24
2022-08-09T11:24:46.064Z,35.17
2022-08-09T11:28:54.707Z,35.47
2022-08-09T11:33:04.244Z,35.44
2022-08-09T11:37:21.161Z,35.64
2022-08-09T11:41:58.801Z,35.59
2022-08-09T11:46:32.917Z,35.85
2022-08-09T11:52:53.658Z,35.91
2022-08-09T11:55:53.306Z,35.99
2022-08-09T11:59:54.647Z,36.11
2022-08-09T12:04:03.126Z,36.43
2022-08-09T12:08:12.461Z,36.62
2022-08-09T12:12:28.746Z,36.76
2022-08-09T12:16:38.236Z,36.41
2022-08-09T12:21:26.662Z,36.11
2022-08-09T12:25:37.183Z,36.21
2022-08-09T12:29:43.988Z,36.23
2022-08-09T12:34:01.028Z,36.31
2022-08-09T12:38:37.826Z,36.75
2022-08-09T12:42:39.023Z,36.72
2022-08-09T12:46:42.836Z,36.65
2022-08-09T12:50:46.411Z,36.50
2022-08-09T12:56:02.393Z,36.30
2022-08-09T12:59:25.028Z,36.34
2022-08-09T13:04:33.215Z,36.50
2022-08-09T13:08:39.984Z,36.41
2022-08-09T13:13:09.161Z,36.27
2022-08-09T13:17:43.941Z,36.29
2022-08-09T13:22:38.183Z,36.11
2022-08-09T13:26:11.921Z,35.80
2022-08-09T13:30:51.203Z,36.02
2022-08-09T13:34:52.068Z,35.63
2022-08-09T13:38:56.494Z,35.54
2022-08-09T13:43:00.214Z,35.68
2022-08-09T13:47:44.023Z,35.81
2022-08-09T13:51:36.766Z,35.78
2022-08-09T13:55:37.518Z,35.89
2022-08-09T13:59:42.154Z,35.85
2022-08-09T14:04:04.954Z,35.91
2022-08-09T14:08:08.176Z,36.26
2022-08-09T14:12:15.607Z,36.46
2022-08-09T14:16:17.742Z,36.29
2022-08-09T14:20:20.643Z,36.33
2022-08-09T14:24:32.087Z,36.28
2022-08-09T14:28:33.739Z,36.41
2022-08-09T14:32:33.484Z,36.22
2022-08-09T14:36:42.823Z,36.55
2022-08-09T14:41:02.232Z,36.46
2022-08-09T14:46:54.647Z,36.44
2022-08-09T14:49:49.156Z,36.35
2022-08-09T14:53:59.037Z,36.40
2022-08-09T14:57:58.617Z,36.46
2022-08-09T15:01:59.220Z,35.90
2022-08-09T15:06:04.049Z,35.03
2022-08-09T15:10:14.129Z,34.49
2022-08-09T15:14:14.559Z,34.07
2022-08-09T15:18:19.345Z,33.97
2022-08-09T15:22:19.240Z,33.79
2022-08-09T15:26:31.214Z,33.38
2022-08-09T15:30:58.329Z,32.80
2022-08-09T15:34:53.267Z,32.87
2022-08-09T15:38:56.511Z,32.77
2022-08-09T15:42:57.907Z,32.69
2022-08-09T15:47:00.262Z,32.48
2022-08-09T15:51:01.393Z,32.68
2022-08-09T15:55:00.555Z,32.64
2022-08-09T15:59:02.592Z,32.51
2022-08-09T16:03:01.864Z,32.82
2022-08-09T16:07:02.177Z,32.95
2022-08-09T16:11:02.647Z,33.03
2022-08-09T16:15:05.267Z,33.33
2022-08-09T16:19:25.365Z,33.22
2022-08-09T16:23:26.762Z,33.44
2022-08-09T16:27:27.814Z,33.51
2022-08-09T16:32:11.103Z,33.46
2022-08-09T16:35:53.344Z,33.53
2022-08-09T16:40:05.608Z,33.21
2022-08-09T16:44:06.296Z,33.06
2022-08-09T16:48:40.589Z,32.49
2022-08-09T16:52:31.368Z,32.06
2022-08-09T16:56:31.718Z,32.12
2022-08-09T17:00:31.659Z,32.22
2022-08-09T17:04:34.662Z,32.12
2022-08-09T17:08:43.599Z,31.98
2022-08-09T17:12:55.515Z,31.82
2022-08-09T17:16:55.509Z,31.58
2022-08-09T17:20:59.691Z,31.69
2022-08-09T17:25:09.774Z,31.78
2022-08-09T17:29:19.213Z,31.78
2022-08-09T17:33:22.332Z,31.79
2022-08-09T17:37:25.098Z,31.87
2022-08-09T17:41:38.399Z,32.02
2022-08-09T17:46:03.256Z,32.15
2022-08-09T17:50:11.063Z,31.79
2022-08-09T17:54:19.178Z,31.61
2022-08-09T17:58:26.982Z,31.05
2022-08-09T18:02:33.571Z,31.32
2022-08-09T18:06:34.735Z,31.18
2022-08-09T18:10:37.165Z,31.20
2022-08-09T18:14:36.905Z,31.05
2022-08-09T18:18:53.366Z,30.91
2022-08-09T18:24:08.903Z,30.69
2022-08-09T18:28:02.998Z,30.62
2022-08-09T18:32:07.211Z,30.54
2022-08-09T18:36:31.945Z,30.66
2022-08-09T18:40:37.379Z,30.67
2022-08-09T18:44:39.717Z,30.62
2022-08-09T18:48:42.389Z,30.65
2022-08-09T18:52:44.576Z,30.59
2022-08-09T18:56:55.112Z,29.41
2022-08-09T19:00:59.498Z,29.19
2022-08-09T19:05:04.085Z,26.88
2022-08-09T19:09:20.575Z,26.15
2022-08-09T19:13:38.379Z,26.25
2022-08-09T19:17:58.221Z,26.18
2022-08-09T19:22:04.782Z,26.57
2022-08-09T19:26:06.927Z,27.30
2022-08-09T19:30:25.204Z,27.58
2022-08-09T19:34:29.530Z,27.79
2022-08-09T19:38:29.658Z,28.20
2022-08-09T19:42:29.528Z,28.30
2022-08-09T19:46:34.961Z,28.04
2022-08-09T19:50:51.050Z,28.44
2022-08-09T19:54:53.823Z,28.47
2022-08-09T19:59:39.689Z,28.50
2022-08-09T20:04:17.015Z,28.31
2022-08-09T20:07:59.834Z,28.49
2022-08-09T20:12:06.790Z,28.58
2022-08-09T20:16:34.929Z,28.64
2022-08-09T20:20:41.481Z,28.82
2022-08-09T20:24:53.536Z,28.70
2022-08-09T20:28:54.369Z,28.93
2022-08-09T20:32:54.339Z,29.02
2022-08-09T20:36:58.109Z,28.93
2022-08-09T20:41:00.288Z,28.86
2022-08-09T20:45:57.315Z,28.84
2022-08-09T20:49:21.817Z,28.86
2022-08-09T20:53:35.438Z,28.67
2022-08-09T20:58:08.512Z,28.74
2022-08-09T21:02:00.236Z,28.59
2022-08-09T21:06:00.053Z,28.25
2022-08-09T21:10:00.104Z,28.40
2022-08-09T21:14:02.058Z,28.31
2022-08-09T21:18:20.757Z,28.19
2022-08-09T21:22:35.658Z,28.33
2022-08-09T21:26:38.399Z,28.17
2022-08-09T21:30:41.500Z,28.12
2022-08-09T21:34:48.336Z,28.13
2022-08-09T21:38:51.103Z,27.89
2022-08-09T21:42:57.342Z,27.78
2022-08-09T21:47:00.026Z,27.56
2022-08-09T21:51:02.261Z,27.29
2022-08-09T21:55:14.913Z,27.05
2022-08-09T21:59:16.291Z,26.87
2022-08-09T22:03:19.644Z,26.51
2022-08-09T22:07:41.469Z,26.21
2022-08-09T22:12:05.998Z,26.07
2022-08-09T22:16:00.795Z,25.96
2022-08-09T22:20:06.671Z,25.74
2022-08-09T22:24:08.810Z,25.65
2022-08-09T22:28:21.011Z,25.69
2022-08-09T22:32:31.387Z,25.67
2022-08-09T22:36:45.432Z,25.51
2022-08-09T22:40:49.104Z,25.44
2022-08-09T22:45:00.376Z,25.26
2022-08-09T22:49:23.714Z,25.13
2022-08-09T22:53:26.373Z,24.99
2022-08-09T22:57:59.430Z,25.17
2022-08-09T23:02:00.202Z,25.08
2022-08-09T23:06:00.128Z,25.07
2022-08-09T23:10:02.047Z,24.98
2022-08-09T23:14:02.755Z,24.68
2022-08-09T23:18:02.478Z,24.75
2022-08-09T23:22:02.204Z,24.61
2022-08-09T23:26:04.110Z,24.61
2022-08-09T23:30:03.791Z,24.57
2022-08-09T23:34:03.974Z,24.44
2022-08-09T23:38:04.007Z,24.36
2022-08-09T23:42:05.408Z,24.31
2022-08-09T23:46:08.262Z,24.24
2022-08-09T23:50:08.225Z,24.29
2022-08-09T23:54:09.153Z,24.23
2022-08-09T23:58:27.733Z,24.21
